Time;durP1;ratioP1;P1;durP2;ratioP2;P2;SDS_P1;SDS_P2;PMS_P1;PMS_P2;Temp;Humidity;BMP_temperature;BMP_pressure;BME280_temperature;BME280_humidity;BME280_pressure;Samples;Min_cycle;Max_cycle;Signal;HPM_P1;HPM_P2
2022/08/31 00:04:47;;;;;;;;;;;19.60;99.90;;;;;;4215057;28;19966;-60
2022/08/31 00:06:49;;;;;;;;;;;19.60;99.90;;;;;;4214785;28;19975;-60
2022/08/31 00:08:54;;;;;;;;;;;19.70;99.90;;;;;;4215123;28;19935;-61
2022/08/31 00:10:57;;;;;;;;;;;19.80;99.90;;;;;;4214917;28;19931;-61
2022/08/31 00:12:59;;;;;;;;;;;19.80;99.90;;;;;;4215341;28;19924;-61
2022/08/31 00:15:01;;;;;;;;;;;19.90;99.90;;;;;;4228116;28;19963;-61
2022/08/31 00:17:03;;;;;;;;;;;19.90;99.90;;;;;;4214913;28;19930;-60
2022/08/31 00:19:05;;;;;;;;;;;19.80;99.90;;;;;;4214853;28;19985;-60
2022/08/31 00:21:07;;;;;;;;;;;19.70;99.90;;;;;;4214749;28;19928;-60
2022/08/31 00:23:10;;;;;;;;;;;19.70;99.90;;;;;;4214593;28;20383;-61
2022/08/31 00:25:12;;;;;;;;;;;19.80;99.90;;;;;;4214703;28;19924;-60
2022/08/31 00:27:14;;;;;;;;;;;19.80;99.90;;;;;;4214748;28;20417;-60
2022/08/31 00:29:17;;;;;;;;;;;19.70;99.90;;;;;;4214458;28;19932;-60
2022/08/31 00:31:20;;;;;;;;;;;19.70;99.90;;;;;;4213647;28;19924;-60
2022/08/31 00:33:22;;;;;;;;;;;19.70;99.90;;;;;;4214253;28;19924;-61
2022/08/31 00:35:28;;;;;;;;;;;19.70;99.90;;;;;;4200801;28;19951;-59
2022/08/31 00:37:30;;;;;;;;;;;19.60;99.90;;;;;;4202355;28;20026;-61
2022/08/31 00:39:32;;;;;;;;;;;19.60;99.90;;;;;;4214610;28;19969;-61
2022/08/31 00:41:35;;;;;;;;;;;19.60;99.90;;;;;;4214441;28;19928;-61
2022/08/31 00:43:37;;;;;;;;;;;19.60;99.90;;;;;;4214401;28;19989;-60
2022/08/31 00:45:39;;;;;;;;;;;19.50;99.90;;;;;;4214640;28;19982;-60
2022/08/31 00:47:41;;;;;;;;;;;19.50;99.90;;;;;;4213800;28;19924;-60
2022/08/31 00:49:48;;;;;;;;;;;19.40;99.90;;;;;;4214377;28;19928;-60
2022/08/31 00:52:01;;;;;;;;;;;19.40;99.90;;;;;;4214565;28;19924;-61
2022/08/31 00:54:04;;;;;;;;;;;19.40;99.90;;;;;;4214006;28;19932;-61
2022/08/31 00:56:06;;;;;;;;;;;19.40;99.90;;;;;;4214339;28;20288;-60
2022/08/31 00:58:10;;;;;;;;;;;19.40;99.90;;;;;;4214229;28;19924;-60
2022/08/31 01:00:13;;;;;;;;;;;19.20;99.90;;;;;;4213985;28;20395;-60
2022/08/31 01:02:16;;;;;;;;;;;19.20;99.90;;;;;;4214545;28;19928;-60
2022/08/31 01:04:18;;;;;;;;;;;19.20;99.90;;;;;;4214129;28;19928;-60
2022/08/31 01:06:20;;;;;;;;;;;19.30;99.90;;;;;;4214169;28;19924;-60
2022/08/31 01:08:22;;;;;;;;;;;19.30;99.90;;;;;;4214386;28;19956;-61
2022/08/31 01:10:29;;;;;;;;;;;19.30;99.90;;;;;;4224411;28;19934;-60
2022/08/31 01:12:31;;;;;;;;;;;19.40;99.90;;;;;;4226598;28;20284;-61
2022/08/31 01:14:35;;;;;;;;;;;19.40;99.90;;;;;;4214190;28;19924;-61
2022/08/31 01:16:39;;;;;;;;;;;19.40;99.90;;;;;;4213891;28;19955;-61
2022/08/31 01:18:41;;;;;;;;;;;19.30;99.90;;;;;;4214019;28;19931;-61
2022/08/31 01:20:45;;;;;;;;;;;19.20;99.90;;;;;;4214086;28;19924;-61
2022/08/31 01:22:56;;;;;;;;;;;19.30;99.90;;;;;;4213849;28;19924;-61
2022/08/31 01:24:58;;;;;;;;;;;19.30;99.90;;;;;;4213821;28;19924;-60
2022/08/31 01:27:03;;;;;;;;;;;19.30;99.90;;;;;;4213690;28;19977;-61
2022/08/31 01:29:05;;;;;;;;;;;19.30;99.90;;;;;;4213946;28;19924;-60
2022/08/31 01:31:10;;;;;;;;;;;19.30;99.90;;;;;;4213587;28;19929;-60
2022/08/31 01:33:12;;;;;;;;;;;19.30;99.90;;;;;;4197084;28;20445;-60
2022/08/31 01:35:14;;;;;;;;;;;19.30;99.90;;;;;;4204210;28;19938;-60
2022/08/31 01:37:16;;;;;;;;;;;19.30;99.90;;;;;;4213677;28;19928;-61
2022/08/31 01:39:18;;;;;;;;;;;19.30;99.90;;;;;;4213596;28;19924;-61
2022/08/31 01:41:21;;;;;;;;;;;19.30;99.90;;;;;;4213354;28;19924;-61
2022/08/31 01:43:23;;;;;;;;;;;19.40;99.90;;;;;;4213821;28;19927;-60
2022/08/31 01:45:25;;;;;;;;;;;19.30;99.90;;;;;;4213794;28;20011;-61
2022/08/31 01:47:27;;;;;;;;;;;19.30;99.90;;;;;;4212889;28;19932;-60
2022/08/31 01:49:29;;;;;;;;;;;19.30;99.90;;;;;;4213948;28;19924;-61
2022/08/31 01:51:31;;;;;;;;;;;19.30;99.90;;;;;;4213728;28;19950;-61
2022/08/31 01:53:33;;;;;;;;;;;19.30;99.90;;;;;;4213666;28;19979;-60
2022/08/31 01:55:36;;;;;;;;;;;19.30;99.90;;;;;;4213683;28;19928;-61
2022/08/31 01:57:38;;;;;;;;;;;19.30;99.90;;;;;;4213362;28;19924;-61
2022/08/31 01:59:40;;;;;;;;;;;19.30;99.90;;;;;;4213897;28;19928;-60
2022/08/31 02:01:44;;;;;;;;;;;19.30;99.90;;;;;;4213573;28;19924;-60
2022/08/31 02:03:46;;;;;;;;;;;19.30;99.90;;;;;;4213483;28;19935;-60
2022/08/31 02:05:48;;;;;;;;;;;19.30;99.90;;;;;;4216835;28;19927;-61
2022/08/31 02:07:50;;;;;;;;;;;19.30;99.90;;;;;;4216946;27;19932;-61
2022/08/31 02:09:52;;;;;;;;;;;19.20;99.90;;;;;;4213543;28;20371;-61
2022/08/31 02:11:54;;;;;;;;;;;19.10;99.90;;;;;;4213528;28;20291;-61
2022/08/31 02:13:56;;;;;;;;;;;19.10;99.90;;;;;;4213483;28;19932;-60
2022/08/31 02:15:58;;;;;;;;;;;19.10;99.90;;;;;;4213662;28;19938;-61
2022/08/31 02:18:00;;;;;;;;;;;19.00;99.90;;;;;;4213347;28;20290;-60
2022/08/31 02:20:04;;;;;;;;;;;18.80;99.90;;;;;;4213624;28;19935;-61
2022/08/31 02:22:06;;;;;;;;;;;18.90;99.90;;;;;;4213598;28;20488;-60
2022/08/31 02:24:10;;;;;;;;;;;18.90;99.90;;;;;;4213274;28;19967;-60
2022/08/31 02:26:13;;;;;;;;;;;18.80;99.90;;;;;;4213537;28;19928;-60
2022/08/31 02:28:17;;;;;;;;;;;18.70;99.90;;;;;;4213323;28;19934;-61
2022/08/31 02:30:19;;;;;;;;;;;18.70;99.90;;;;;;4213124;28;19931;-60
2022/08/31 02:32:21;;;;;;;;;;;18.60;99.90;;;;;;4213146;28;20025;-60
2022/08/31 02:34:24;;;;;;;;;;;18.70;99.90;;;;;;4213377;28;19939;-61
2022/08/31 02:36:26;;;;;;;;;;;18.80;99.90;;;;;;4213436;28;19932;-60
2022/08/31 02:38:30;;;;;;;;;;;18.80;99.90;;;;;;4213360;28;19939;-60
2022/08/31 02:40:34;;;;;;;;;;;18.80;99.90;;;;;;4212949;28;19989;-61
2022/08/31 02:42:36;;;;;;;;;;;18.90;99.90;;;;;;4213041;28;19997;-60
2022/08/31 02:44:54;;;;;;;;;;;18.80;99.90;;;;;;4213018;28;19978;-60
2022/08/31 02:46:56;;;;;;;;;;;18.70;99.90;;;;;;4212793;28;19932;-58
2022/08/31 02:48:59;;;;;;;;;;;18.70;99.90;;;;;;4212990;28;20348;-59
2022/08/31 02:51:03;;;;;;;;;;;18.60;99.90;;;;;;4213354;28;19924;-60
2022/08/31 02:53:04;;;;;;;;;;;18.60;99.90;;;;;;4213296;28;19935;-60
2022/08/31 02:55:07;;;;;;;;;;;18.60;99.90;;;;;;4213632;28;19928;-60
2022/08/31 02:57:09;;;;;;;;;;;18.50;99.90;;;;;;4216202;28;19930;-60
2022/08/31 02:59:11;;;;;;;;;;;18.50;99.90;;;;;;4214703;28;20367;-60
2022/08/31 03:01:13;;;;;;;;;;;18.50;99.90;;;;;;4214562;28;19989;-60
2022/08/31 03:03:15;;;;;;;;;;;18.50;99.90;;;;;;4229219;28;19953;-60
2022/08/31 03:05:19;;;;;;;;;;;18.50;99.90;;;;;;4219212;28;20049;-60
2022/08/31 03:07:21;;;;;;;;;;;18.50;99.90;;;;;;4215992;28;19924;-60
2022/08/31 03:09:23;;;;;;;;;;;18.60;99.90;;;;;;4216148;28;19930;-60
2022/08/31 03:11:26;;;;;;;;;;;18.60;99.90;;;;;;4215747;28;20393;-60
2022/08/31 03:13:28;;;;;;;;;;;18.50;99.90;;;;;;4215874;28;19928;-60
2022/08/31 03:15:31;;;;;;;;;;;18.50;99.90;;;;;;4215950;28;19931;-60
2022/08/31 03:17:33;;;;;;;;;;;18.60;99.90;;;;;;4206436;28;20412;-60
2022/08/31 03:19:35;;;;;;;;;;;18.50;99.90;;;;;;4198986;28;19929;-61
2022/08/31 03:21:36;;;;;;;;;;;18.50;99.90;;;;;;4199020;28;19932;-60
2022/08/31 03:23:38;;;;;;;;;;;18.50;99.90;;;;;;4198961;28;19924;-60
2022/08/31 03:25:40;;;;;;;;;;;18.50;99.90;;;;;;4199071;28;19924;-60
2022/08/31 03:27:43;;;;;;;;;;;18.50;99.90;;;;;;4199117;28;20287;-60
2022/08/31 03:29:45;;;;;;;;;;;18.50;99.90;;;;;;4199029;28;19932;-61
2022/08/31 03:31:47;;;;;;;;;;;18.50;99.90;;;;;;4199000;28;19928;-60
2022/08/31 03:33:49;;;;;;;;;;;18.50;99.90;;;;;;4198618;28;19960;-60
2022/08/31 03:35:52;;;;;;;;;;;18.40;99.90;;;;;;4198921;28;19970;-60
2022/08/31 03:37:53;;;;;;;;;;;18.40;99.90;;;;;;4198590;28;20380;-60
2022/08/31 03:39:56;;;;;;;;;;;18.30;99.90;;;;;;4199082;28;19924;-60
2022/08/31 03:41:57;;;;;;;;;;;18.30;99.90;;;;;;4198801;28;19929;-60
2022/08/31 03:44:00;;;;;;;;;;;18.20;99.90;;;;;;4198408;28;20307;-60
2022/08/31 03:46:03;;;;;;;;;;;18.20;99.90;;;;;;4198952;28;19925;-60
2022/08/31 03:48:09;;;;;;;;;;;18.20;99.90;;;;;;4212365;28;19928;-60
2022/08/31 03:50:14;;;;;;;;;;;18.20;99.90;;;;;;4215317;28;19928;-60
2022/08/31 03:52:17;;;;;;;;;;;18.20;99.90;;;;;;4215371;28;20043;-61
2022/08/31 03:54:19;;;;;;;;;;;18.10;99.90;;;;;;4215037;28;19924;-60
2022/08/31 03:56:21;;;;;;;;;;;18.10;99.90;;;;;;4214081;28;19963;-59
2022/08/31 03:58:23;;;;;;;;;;;18.10;99.90;;;;;;4218823;28;20410;-60
2022/08/31 04:00:25;;;;;;;;;;;18.10;99.90;;;;;;4232186;27;20383;-60
2022/08/31 04:02:29;;;;;;;;;;;18.20;99.90;;;;;;4232131;28;19923;-60
2022/08/31 04:04:36;;;;;;;;;;;18.30;99.90;;;;;;4232453;27;19928;-60
2022/08/31 04:06:39;;;;;;;;;;;18.30;99.90;;;;;;4232087;27;19930;-60
2022/08/31 04:08:41;;;;;;;;;;;18.20;99.90;;;;;;4231589;28;19931;-60
2022/08/31 04:10:43;;;;;;;;;;;18.20;99.90;;;;;;4231833;27;20361;-60
2022/08/31 04:12:45;;;;;;;;;;;18.20;99.90;;;;;;4231896;27;19924;-61
2022/08/31 04:14:47;;;;;;;;;;;18.20;99.90;;;;;;4231812;27;19970;-60
2022/08/31 04:16:49;;;;;;;;;;;18.10;99.90;;;;;;4231774;28;20383;-60
2022/08/31 04:18:51;;;;;;;;;;;18.00;99.90;;;;;;4232090;28;19923;-60
2022/08/31 04:20:53;;;;;;;;;;;17.90;99.90;;;;;;4215902;28;19971;-60
2022/08/31 04:22:55;;;;;;;;;;;17.80;99.90;;;;;;4214651;28;20446;-60
2022/08/31 04:24:57;;;;;;;;;;;17.80;99.90;;;;;;4214718;28;19932;-60
2022/08/31 04:26:59;;;;;;;;;;;17.80;99.90;;;;;;4214614;28;19939;-60
2022/08/31 04:29:02;;;;;;;;;;;17.80;99.90;;;;;;4214704;28;19928;-60
2022/08/31 04:31:07;;;;;;;;;;;17.70;99.90;;;;;;4214599;28;19924;-60
2022/08/31 04:33:09;;;;;;;;;;;17.60;99.90;;;;;;4214302;28;19924;-60
2022/08/31 04:35:12;;;;;;;;;;;17.60;99.90;;;;;;4214511;28;19924;-60
2022/08/31 04:37:14;;;;;;;;;;;17.70;99.90;;;;;;4214697;28;19924;-60
2022/08/31 04:39:16;;;;;;;;;;;17.80;99.90;;;;;;4204201;28;19986;-60
2022/08/31 04:41:19;;;;;;;;;;;17.80;99.90;;;;;;4197560;28;20291;-60
2022/08/31 04:43:21;;;;;;;;;;;17.80;99.90;;;;;;4214105;28;19947;-60
2022/08/31 04:45:24;;;;;;;;;;;17.70;99.90;;;;;;4214449;28;19981;-60
2022/08/31 04:47:26;;;;;;;;;;;17.70;99.90;;;;;;4214039;28;20003;-60
2022/08/31 04:49:28;;;;;;;;;;;17.70;99.90;;;;;;4214539;28;19932;-60
2022/08/31 04:51:31;;;;;;;;;;;17.70;99.90;;;;;;4214203;28;19936;-60
2022/08/31 04:53:35;;;;;;;;;;;17.70;99.90;;;;;;4214166;28;20051;-60
2022/08/31 04:55:40;;;;;;;;;;;17.70;99.90;;;;;;4226183;28;20001;-59
2022/08/31 04:57:42;;;;;;;;;;;17.70;99.90;;;;;;4227694;28;20014;-60
2022/08/31 04:59:44;;;;;;;;;;;17.80;99.90;;;;;;4214428;28;20019;-60
2022/08/31 05:01:46;;;;;;;;;;;17.80;99.90;;;;;;4212669;28;19924;-60
2022/08/31 05:03:51;;;;;;;;;;;17.80;99.90;;;;;;4214181;28;19928;-60
2022/08/31 05:05:53;;;;;;;;;;;17.80;99.90;;;;;;4213177;28;19974;-60
2022/08/31 05:07:55;;;;;;;;;;;17.70;99.90;;;;;;4213746;28;19924;-60
2022/08/31 05:09:57;;;;;;;;;;;17.70;99.90;;;;;;4214079;28;19934;-60
2022/08/31 05:11:59;;;;;;;;;;;17.80;99.90;;;;;;4212591;28;20014;-60
2022/08/31 05:14:02;;;;;;;;;;;17.80;99.90;;;;;;4213665;28;19928;-60
2022/08/31 05:16:06;;;;;;;;;;;17.90;99.90;;;;;;4213964;28;19947;-60
2022/08/31 05:18:09;;;;;;;;;;;17.90;99.90;;;;;;4213151;28;19981;-60
2022/08/31 05:20:12;;;;;;;;;;;17.90;99.90;;;;;;4212336;28;19934;-60
2022/08/31 05:22:14;;;;;;;;;;;17.90;99.90;;;;;;4213881;28;19924;-60
2022/08/31 05:24:18;;;;;;;;;;;18.00;99.90;;;;;;4201866;28;20391;-60
2022/08/31 05:26:21;;;;;;;;;;;18.00;99.90;;;;;;4197346;28;20015;-59
2022/08/31 05:28:27;;;;;;;;;;;18.00;99.90;;;;;;4197245;28;19970;-60
2022/08/31 05:30:29;;;;;;;;;;;18.10;99.90;;;;;;4196982;28;19943;-60
2022/08/31 05:32:31;;;;;;;;;;;18.10;99.90;;;;;;4196995;28;20082;-60
2022/08/31 05:34:33;;;;;;;;;;;18.10;99.90;;;;;;4196847;28;19928;-60
2022/08/31 05:36:35;;;;;;;;;;;18.10;99.90;;;;;;4197298;28;19928;-60
2022/08/31 05:38:37;;;;;;;;;;;18.10;99.90;;;;;;4197088;28;19928;-60
2022/08/31 05:40:39;;;;;;;;;;;18.10;99.90;;;;;;4197437;28;19946;-60
2022/08/31 05:42:41;;;;;;;;;;;18.00;99.90;;;;;;4197009;28;19999;-60
2022/08/31 05:44:43;;;;;;;;;;;18.00;99.90;;;;;;4197041;28;19924;-60
2022/08/31 05:46:45;;;;;;;;;;;18.10;99.90;;;;;;4199201;28;19928;-60
2022/08/31 05:48:58;;;;;;;;;;;18.10;99.90;;;;;;4212545;28;20422;-60
2022/08/31 05:51:00;;;;;;;;;;;18.10;99.90;;;;;;4218646;28;19932;-60
2022/08/31 05:53:02;;;;;;;;;;;18.00;99.90;;;;;;4230591;28;20367;-60
2022/08/31 05:55:04;;;;;;;;;;;18.00;99.90;;;;;;4230124;28;20355;-60
2022/08/31 05:57:06;;;;;;;;;;;18.00;99.90;;;;;;4230471;28;19931;-59
2022/08/31 05:59:08;;;;;;;;;;;18.00;99.90;;;;;;4230715;27;20019;-59
2022/08/31 06:01:11;;;;;;;;;;;18.00;99.90;;;;;;4230307;28;19931;-60
2022/08/31 06:03:13;;;;;;;;;;;18.00;99.90;;;;;;4230303;28;19924;-60
2022/08/31 06:05:15;;;;;;;;;;;18.00;99.90;;;;;;4230202;28;20415;-59
2022/08/31 06:07:17;;;;;;;;;;;18.00;99.90;;;;;;4230262;28;19924;-59
2022/08/31 06:09:20;;;;;;;;;;;18.10;99.90;;;;;;4230179;28;19928;-60
2022/08/31 06:11:23;;;;;;;;;;;18.10;99.90;;;;;;4230221;28;19937;-60
2022/08/31 06:13:26;;;;;;;;;;;18.10;99.90;;;;;;4230347;27;19924;-60
2022/08/31 06:15:28;;;;;;;;;;;18.20;99.90;;;;;;4230232;27;19928;-60
2022/08/31 06:17:31;;;;;;;;;;;18.20;99.90;;;;;;4230467;28;19984;-60
2022/08/31 06:19:33;;;;;;;;;;;18.40;99.90;;;;;;4226278;28;20401;-60
2022/08/31 06:21:40;;;;;;;;;;;18.50;99.90;;;;;;4213289;28;20089;-60
2022/08/31 06:23:51;;;;;;;;;;;18.50;99.90;;;;;;4213216;28;20295;-60
2022/08/31 06:26:00;;;;;;;;;;;18.50;99.90;;;;;;4213440;28;19970;-60
2022/08/31 06:28:06;;;;;;;;;;;18.60;99.90;;;;;;4212248;28;19924;-60
2022/08/31 06:30:08;;;;;;;;;;;18.90;99.90;;;;;;4212669;28;19928;-60
2022/08/31 06:32:12;;;;;;;;;;;19.00;99.90;;;;;;4216219;28;19931;-60
2022/08/31 06:34:16;;;;;;;;;;;19.10;99.90;;;;;;4216719;28;19969;-60
2022/08/31 06:36:19;;;;;;;;;;;19.20;99.90;;;;;;4216313;28;20342;-61
2022/08/31 06:38:21;;;;;;;;;;;19.40;99.90;;;;;;4216286;28;19928;-61
2022/08/31 06:40:27;;;;;;;;;;;19.60;99.90;;;;;;4216567;28;19967;-61
2022/08/31 06:42:29;;;;;;;;;;;19.60;99.90;;;;;;4216110;28;19939;-60
2022/08/31 06:44:31;;;;;;;;;;;19.60;99.90;;;;;;4215038;28;20411;-61
2022/08/31 06:46:34;;;;;;;;;;;19.80;99.90;;;;;;4214332;28;19924;-60
2022/08/31 06:48:36;;;;;;;;;;;19.80;99.90;;;;;;4224150;28;20386;-60
2022/08/31 06:50:40;;;;;;;;;;;19.90;99.90;;;;;;4216594;28;20158;-61
2022/08/31 06:52:42;;;;;;;;;;;20.00;99.90;;;;;;4216347;28;19924;-60
2022/08/31 06:54:44;;;;;;;;;;;20.10;99.90;;;;;;4216034;28;20018;-60
2022/08/31 06:56:46;;;;;;;;;;;20.50;99.90;;;;;;4216404;28;19978;-60
2022/08/31 06:58:49;;;;;;;;;;;20.60;99.90;;;;;;4216152;28;19978;-60
2022/08/31 07:00:57;;;;;;;;;;;20.70;99.90;;;;;;4216203;28;20446;-61
2022/08/31 07:03:21;;;;;;;;;;;20.70;99.90;;;;;;4215042;28;19936;-61
2022/08/31 07:05:21;;;;;;;;;;;20.90;99.90;;;;;;4215735;28;20370;-61
2022/08/31 07:07:25;;;;;;;;;;;21.10;99.90;;;;;;4215857;28;19928;-61
2022/08/31 07:09:27;;;;;;;;;;;21.10;99.90;;;;;;4215806;28;19927;-60
2022/08/31 07:11:33;;;;;;;;;;;21.20;99.90;;;;;;4215838;28;19948;-61
2022/08/31 07:13:35;;;;;;;;;;;21.50;99.90;;;;;;4215716;28;19928;-60
2022/08/31 07:15:37;;;;;;;;;;;21.70;99.90;;;;;;4215958;28;20359;-60
2022/08/31 07:17:39;;;;;;;;;;;22.00;99.90;;;;;;4214379;28;19962;-60
2022/08/31 07:19:41;;;;;;;;;;;22.30;99.90;;;;;;4215786;28;19932;-60
2022/08/31 07:21:49;;;;;;;;;;;22.50;99.90;;;;;;4198862;28;19967;-61
2022/08/31 07:23:52;;;;;;;;;;;22.70;99.90;;;;;;4207057;28;19924;-60
2022/08/31 07:25:54;;;;;;;;;;;22.70;99.90;;;;;;4215654;28;20436;-61
2022/08/31 07:27:58;;;;;;;;;;;23.20;99.90;;;;;;4215664;28;19928;-61
2022/08/31 07:30:00;;;;;;;;;;;23.30;99.90;;;;;;4215647;28;19932;-61
2022/08/31 07:32:02;;;;;;;;;;;23.20;99.90;;;;;;4215869;28;19939;-61
2022/08/31 07:34:06;;;;;;;;;;;23.10;99.90;;;;;;4200573;28;20327;-61
2022/08/31 07:36:10;;;;;;;;;;;23.60;99.90;;;;;;4202687;28;19981;-60
2022/08/31 07:42:54;;;;;;;;;;;23.20;99.90;;;;;;4205655;28;20383;-61
2022/08/31 07:44:57;;;;;;;;;;;23.60;99.90;;;;;;4215317;27;19924;-61
2022/08/31 07:46:58;;;;;;;;;;;23.70;99.90;;;;;;4214710;28;20387;-60
2022/08/31 07:49:01;;;;;;;;;;;23.70;99.90;;;;;;4215149;28;19974;-60
2022/08/31 07:51:03;;;;;;;;;;;23.80;99.90;;;;;;4215248;28;19955;-60
2022/08/31 07:53:07;;;;;;;;;;;24.20;99.90;;;;;;4215321;28;19924;-60
2022/08/31 07:55:11;;;;;;;;;;;24.40;99.90;;;;;;4215447;28;19928;-60
2022/08/31 07:57:13;;;;;;;;;;;24.70;99.90;;;;;;4215060;28;20019;-60
2022/08/31 07:59:19;;;;;;;;;;;24.70;99.90;;;;;;4215024;28;19924;-61
2022/08/31 08:01:21;;;;;;;;;;;24.90;99.90;;;;;;4214905;28;19928;-61
2022/08/31 08:03:24;;;;;;;;;;;25.10;99.90;;;;;;4215028;28;19928;-60
2022/08/31 08:05:26;;;;;;;;;;;25.40;99.90;;;;;;4215119;28;19978;-60
2022/08/31 08:07:32;;;;;;;;;;;25.20;99.90;;;;;;4214910;28;20312;-60
2022/08/31 08:09:34;;;;;;;;;;;25.10;99.90;;;;;;4198413;28;19978;-61
2022/08/31 08:11:40;;;;;;;;;;;25.20;99.90;;;;;;4204126;28;19927;-60
2022/08/31 08:13:43;;;;;;;;;;;25.10;99.90;;;;;;4215162;28;19924;-60
2022/08/31 08:15:46;;;;;;;;;;;25.10;99.90;;;;;;4214814;28;19989;-60
2022/08/31 08:17:48;;;;;;;;;;;25.30;99.90;;;;;;4214932;28;19928;-61
2022/08/31 08:19:50;;;;;;;;;;;25.30;99.90;;;;;;4214811;28;19989;-60
2022/08/31 08:21:52;;;;;;;;;;;25.70;99.90;;;;;;4214588;28;19931;-60
2022/08/31 08:23:54;;;;;;;;;;;25.70;99.90;;;;;;4214714;28;19928;-61
2022/08/31 08:25:59;;;;;;;;;;;25.70;99.90;;;;;;4213465;28;19928;-60
2022/08/31 08:28:01;;;;;;;;;;;25.60;99.90;;;;;;4214424;28;19924;-61
2022/08/31 08:30:18;;;;;;;;;;;25.90;99.90;;;;;;4214438;28;19924;-60
2022/08/31 08:32:19;;;;;;;;;;;25.40;99.90;;;;;;4214526;28;19964;-61
2022/08/31 08:34:22;;;;;;;;;;;25.60;99.90;;;;;;4214560;28;20039;-61
2022/08/31 08:36:36;;;;;;;;;;;25.90;99.90;;;;;;4214843;28;19924;-60
2022/08/31 08:38:42;;;;;;;;;;;26.30;99.90;;;;;;4213198;28;19958;-60
2022/08/31 08:40:44;;;;;;;;;;;25.60;99.90;;;;;;4215120;28;19934;-60
2022/08/31 08:42:46;;;;;;;;;;;25.50;99.90;;;;;;4214386;28;20283;-61
2022/08/31 08:44:48;;;;;;;;;;;25.70;99.90;;;;;;4213293;28;19924;-61
2022/08/31 08:46:52;;;;;;;;;;;26.10;99.90;;;;;;4214074;28;20379;-60
2022/08/31 08:48:56;;;;;;;;;;;26.10;99.90;;;;;;4214644;28;20025;-60
2022/08/31 08:51:00;;;;;;;;;;;26.20;99.90;;;;;;4197619;28;20393;-60
2022/08/31 08:53:04;;;;;;;;;;;25.80;99.90;;;;;;4196629;28;19935;-61
2022/08/31 08:55:08;;;;;;;;;;;26.00;99.90;;;;;;4197738;28;19933;-60
2022/08/31 08:57:13;;;;;;;;;;;26.10;99.90;;;;;;4197402;28;19935;-60
2022/08/31 08:59:16;;;;;;;;;;;26.30;99.90;;;;;;4197479;28;20391;-60
2022/08/31 09:01:23;;;;;;;;;;;26.20;99.90;;;;;;4196290;28;20015;-61
2022/08/31 09:03:43;;;;;;;;;;;26.30;99.90;;;;;;4197484;28;19981;-61
2022/08/31 09:05:58;;;;;;;;;;;26.40;99.90;;;;;;4197560;28;19928;-61
2022/08/31 09:08:18;;;;;;;;;;;26.20;99.90;;;;;;4197407;28;20367;-61
2022/08/31 09:10:41;;;;;;;;;;;26.00;99.90;;;;;;4197462;28;19928;-60
2022/08/31 09:12:51;;;;;;;;;;;26.10;99.90;;;;;;4197561;28;19929;-60
2022/08/31 09:14:57;;;;;;;;;;;26.10;99.90;;;;;;4197579;28;19925;-60
2022/08/31 09:17:15;;;;;;;;;;;26.00;99.90;;;;;;4197624;28;20391;-60
2022/08/31 09:19:18;;;;;;;;;;;26.00;99.90;;;;;;4197562;28;19967;-60
2022/08/31 09:21:20;;;;;;;;;;;26.20;99.90;;;;;;4197476;28;19967;-60
2022/08/31 09:23:22;;;;;;;;;;;26.10;99.90;;;;;;4209213;28;19924;-61
2022/08/31 09:25:31;;;;;;;;;;;26.20;99.90;;;;;;4211221;28;19933;-60
2022/08/31 09:27:45;;;;;;;;;;;26.30;99.90;;;;;;4199479;28;20411;-60
2022/08/31 09:29:55;;;;;;;;;;;26.30;99.90;;;;;;4213693;28;19935;-60
2022/08/31 09:32:02;;;;;;;;;;;26.30;99.90;;;;;;4211990;28;20033;-60
2022/08/31 09:34:13;;;;;;;;;;;26.30;99.90;;;;;;4204621;28;19924;-60
2022/08/31 09:36:16;;;;;;;;;;;26.30;99.90;;;;;;4209154;28;19924;-60
2022/08/31 09:38:26;;;;;;;;;;;26.10;99.90;;;;;;4209946;28;19966;-60
2022/08/31 09:40:37;;;;;;;;;;;26.00;99.90;;;;;;4200392;28;19930;-60
2022/08/31 09:42:41;;;;;;;;;;;25.80;99.90;;;;;;4208668;28;19963;-59
2022/08/31 09:44:45;;;;;;;;;;;26.20;99.90;;;;;;4211258;28;19977;-60
2022/08/31 09:46:49;;;;;;;;;;;26.40;99.90;;;;;;4199908;28;19932;-60
2022/08/31 09:48:55;;;;;;;;;;;26.70;99.90;;;;;;4210928;28;19932;-60
2022/08/31 09:51:00;;;;;;;;;;;27.00;99.90;;;;;;4211072;28;19956;-60
2022/08/31 09:55:33;;;;;;;;;;;27.20;99.90;;;;;;4206303;28;19924;-60
2022/08/31 09:57:41;;;;;;;;;;;26.70;99.90;;;;;;4208103;28;20019;-60
2022/08/31 09:59:47;;;;;;;;;;;26.70;99.90;;;;;;4203551;28;20367;-60
2022/08/31 10:01:49;;;;;;;;;;;26.80;99.90;;;;;;4207960;28;20395;-60
2022/08/31 10:04:06;;;;;;;;;;;27.10;99.90;;;;;;4208341;28;19928;-60
2022/08/31 10:06:40;;;;;;;;;;;27.70;99.90;;;;;;4211956;28;19977;-60
2022/08/31 10:08:56;;;;;;;;;;;27.90;99.90;;;;;;4204401;28;20380;-60
2022/08/31 10:11:05;;;;;;;;;;;28.10;99.90;;;;;;4201818;28;19925;-60
2022/08/31 10:13:19;;;;;;;;;;;28.10;99.90;;;;;;4216525;28;19955;-59
2022/08/31 10:15:26;;;;;;;;;;;28.10;99.90;;;;;;4209815;28;20275;-60
2022/08/31 10:17:36;;;;;;;;;;;28.30;99.90;;;;;;4205398;28;19932;-60
2022/08/31 10:19:41;;;;;;;;;;;28.40;99.90;;;;;;4210957;28;20011;-60
2022/08/31 10:21:50;;;;;;;;;;;28.00;99.90;;;;;;4210682;28;20018;-60
2022/08/31 10:23:57;;;;;;;;;;;27.80;99.90;;;;;;4210890;28;19927;-60
2022/08/31 10:26:06;;;;;;;;;;;27.80;99.90;;;;;;4207268;28;19990;-60
2022/08/31 10:28:14;;;;;;;;;;;27.90;99.90;;;;;;4213606;28;19949;-59
2022/08/31 10:30:26;;;;;;;;;;;28.00;99.90;;;;;;4207812;28;19985;-60
2022/08/31 10:32:41;;;;;;;;;;;28.20;99.50;;;;;;4208912;28;19963;-60
2022/08/31 10:35:04;;;;;;;;;;;28.30;99.90;;;;;;4212470;28;19924;-60
2022/08/31 10:37:23;;;;;;;;;;;28.80;99.90;;;;;;4210781;28;20023;-60
2022/08/31 10:39:25;;;;;;;;;;;29.10;99.40;;;;;;4215669;28;19928;-60
2022/08/31 10:41:29;;;;;;;;;;;29.10;98.50;;;;;;4208140;28;19935;-60
2022/08/31 10:43:52;;;;;;;;;;;29.20;98.00;;;;;;4208283;28;20459;-60
2022/08/31 10:45:56;;;;;;;;;;;28.90;97.40;;;;;;4207053;28;19954;-60
2022/08/31 10:47:59;;;;;;;;;;;29.00;96.10;;;;;;4212918;28;20291;-60
2022/08/31 10:50:03;;;;;;;;;;;28.80;97.90;;;;;;4214670;28;20345;-60
2022/08/31 10:52:17;;;;;;;;;;;29.30;96.40;;;;;;4216302;28;20395;-60
2022/08/31 10:54:32;;;;;;;;;;;28.90;95.80;;;;;;4199500;28;19931;-61
2022/08/31 10:56:49;;;;;;;;;;;29.00;99.10;;;;;;4214409;28;19931;-61
2022/08/31 10:58:54;;;;;;;;;;;29.00;95.00;;;;;;4210947;28;19935;-60
2022/08/31 11:01:01;;;;;;;;;;;29.30;96.50;;;;;;4205687;28;19924;-60
2022/08/31 11:03:16;;;;;;;;;;;29.10;95.70;;;;;;4209415;28;19985;-61
2022/08/31 11:05:32;;;;;;;;;;;29.50;98.30;;;;;;4212804;28;20385;-60
2022/08/31 11:07:34;;;;;;;;;;;29.90;95.80;;;;;;4216010;28;20375;-60
2022/08/31 11:09:41;;;;;;;;;;;29.30;96.90;;;;;;4215706;28;20382;-60
2022/08/31 11:11:46;;;;;;;;;;;29.20;96.40;;;;;;4215896;28;20294;-60
2022/08/31 11:14:08;;;;;;;;;;;28.50;97.20;;;;;;4214099;28;19932;-60
2022/08/31 11:16:12;;;;;;;;;;;28.70;99.10;;;;;;4212022;28;19935;-60
2022/08/31 11:18:38;;;;;;;;;;;29.10;95.20;;;;;;4215044;28;20031;-60
2022/08/31 11:20:53;;;;;;;;;;;29.20;95.30;;;;;;4216092;28;19928;-60
2022/08/31 11:23:14;;;;;;;;;;;29.40;95.80;;;;;;4198916;28;19924;-60
2022/08/31 11:25:21;;;;;;;;;;;29.40;94.90;;;;;;4201934;28;19974;-60
2022/08/31 11:27:32;;;;;;;;;;;29.10;94.90;;;;;;4201494;28;20376;-60
2022/08/31 11:29:40;;;;;;;;;;;29.30;95.10;;;;;;4226513;28;19927;-60
2022/08/31 11:31:42;;;;;;;;;;;29.00;93.00;;;;;;4212126;28;19928;-60
2022/08/31 11:33:49;;;;;;;;;;;28.80;94.30;;;;;;4200881;28;19935;-60
2022/08/31 11:36:10;;;;;;;;;;;29.30;93.90;;;;;;4207112;28;19958;-60
2022/08/31 11:38:34;;;;;;;;;;;29.30;92.20;;;;;;4209819;28;20334;-60
2022/08/31 11:40:43;;;;;;;;;;;29.20;94.40;;;;;;4215470;28;20414;-61
2022/08/31 11:42:45;;;;;;;;;;;29.90;93.60;;;;;;4214670;28;20410;-61
2022/08/31 11:45:07;;;;;;;;;;;30.30;93.50;;;;;;4215488;28;20383;-61
2022/08/31 11:47:28;;;;;;;;;;;30.10;93.90;;;;;;4212211;28;20445;-60
2022/08/31 11:49:38;;;;;;;;;;;29.40;93.20;;;;;;4211990;28;19928;-60
2022/08/31 11:51:40;;;;;;;;;;;28.80;93.70;;;;;;4197476;28;19928;-60
2022/08/31 11:53:43;;;;;;;;;;;28.90;95.30;;;;;;4205825;28;19924;-61
2022/08/31 11:55:47;;;;;;;;;;;29.40;92.80;;;;;;4214203;28;19924;-60
2022/08/31 11:58:08;;;;;;;;;;;28.70;92.90;;;;;;4215135;28;19924;-60
2022/08/31 12:00:18;;;;;;;;;;;29.00;95.50;;;;;;4212921;28;19935;-61
2022/08/31 12:02:20;;;;;;;;;;;29.30;91.10;;;;;;4210062;28;20419;-61
2022/08/31 12:04:28;;;;;;;;;;;29.90;92.50;;;;;;4214049;28;20391;-61
2022/08/31 12:06:32;;;;;;;;;;;30.40;93.20;;;;;;4214137;28;19928;-61
2022/08/31 12:08:45;;;;;;;;;;;30.80;91.70;;;;;;4214119;28;19935;-61
2022/08/31 12:11:11;;;;;;;;;;;30.70;91.30;;;;;;4203784;27;20007;-61
2022/08/31 12:13:17;;;;;;;;;;;30.90;94.20;;;;;;4213267;28;19928;-60
2022/08/31 12:15:27;;;;;;;;;;;31.20;92.30;;;;;;4200277;28;19979;-60
2022/08/31 12:18:04;;;;;;;;;;;30.90;91.10;;;;;;4212728;28;19986;-61